sensor_id;sensor_type;location;lat;lon;timestamp;pressure;altitude;pressure_sealevel;temperature;humidity
65897;BME280;52677;50.898;10.854;2022-10-30T00:01:33;98898.75;;;10.33;100.00
65897;BME280;52677;50.898;10.854;2022-10-30T00:03:33;98886.44;;;10.31;100.00
65897;BME280;52677;50.898;10.854;2022-10-30T00:05:34;98891.13;;;10.27;100.00
65897;BME280;52677;50.898;10.854;2022-10-30T00:07:34;98891.84;;;10.24;100.00
65897;BME280;52677;50.898;10.854;2022-10-30T00:09:34;98898.09;;;10.21;100.00
65897;BME280;52677;50.898;10.854;2022-10-30T00:11:35;98894.09;;;10.18;100.00
65897;BME280;52677;50.898;10.854;2022-10-30T00:13:36;98895.22;;;10.17;100.00
65897;BME280;52677;50.898;10.854;2022-10-30T00:15:36;98886.88;;;10.13;100.00
65897;BME280;52677;50.898;10.854;2022-10-30T00:17:37;98893.56;;;10.12;100.00
65897;BME280;52677;50.898;10.854;2022-10-30T00:19:37;98894.66;;;10.08;100.00
65897;BME280;52677;50.898;10.854;2022-10-30T00:21:37;98888.78;;;10.09;100.00
65897;BME280;52677;50.898;10.854;2022-10-30T00:23:38;98894.31;;;10.09;100.00
65897;BME280;52677;50.898;10.854;2022-10-30T00:25:39;98889.13;;;10.08;100.00
65897;BME280;52677;50.898;10.854;2022-10-30T00:27:40;98888.69;;;10.06;100.00
65897;BME280;52677;50.898;10.854;2022-10-30T00:29:40;98889.94;;;10.08;100.00
65897;BME280;52677;50.898;10.854;2022-10-30T00:31:41;98892.34;;;10.10;100.00
65897;BME280;52677;50.898;10.854;2022-10-30T00:33:41;98878.53;;;10.10;100.00
65897;BME280;52677;50.898;10.854;2022-10-30T00:35:47;98879.31;;;10.10;100.00
65897;BME280;52677;50.898;10.854;2022-10-30T00:37:47;98879.75;;;10.12;100.00
65897;BME280;52677;50.898;10.854;2022-10-30T00:39:48;98878.44;;;10.06;100.00
65897;BME280;52677;50.898;10.854;2022-10-30T00:41:48;98878.44;;;10.06;100.00
65897;BME280;52677;50.898;10.854;2022-10-30T00:43:49;98876.84;;;10.05;100.00
65897;BME280;52677;50.898;10.854;2022-10-30T00:45:49;98872.84;;;10.03;100.00
65897;BME280;52677;50.898;10.854;2022-10-30T00:47:55;98867.25;;;9.99;100.00
65897;BME280;52677;50.898;10.854;2022-10-30T00:52:16;98868.03;;;10.00;100.00
65897;BME280;52677;50.898;10.854;2022-10-30T00:54:19;98867.31;;;10.03;100.00
65897;BME280;52677;50.898;10.854;2022-10-30T00:56:20;98864.47;;;9.99;100.00
65897;BME280;52677;50.898;10.854;2022-10-30T00:58:29;98858.16;;;9.99;100.00
65897;BME280;52677;50.898;10.854;2022-10-30T01:00:30;98860.53;;;10.00;100.00
65897;BME280;52677;50.898;10.854;2022-10-30T01:02:30;98864.63;;;10.06;100.00
65897;BME280;52677;50.898;10.854;2022-10-30T01:04:33;98855.31;;;10.14;100.00
65897;BME280;52677;50.898;10.854;2022-10-30T01:06:38;98855.38;;;10.18;100.00
65897;BME280;52677;50.898;10.854;2022-10-30T01:08:42;98862.06;;;10.17;100.00
65897;BME280;52677;50.898;10.854;2022-10-30T01:10:42;98865.78;;;10.25;100.00
65897;BME280;52677;50.898;10.854;2022-10-30T01:12:44;98859.03;;;10.22;100.00
65897;BME280;52677;50.898;10.854;2022-10-30T01:14:53;98858.66;;;10.24;100.00
65897;BME280;52677;50.898;10.854;2022-10-30T01:26:13;98853.84;;;10.21;100.00
65897;BME280;52677;50.898;10.854;2022-10-30T01:31:07;98858.56;;;10.20;100.00
65897;BME280;52677;50.898;10.854;2022-10-30T01:33:14;98860.97;;;10.22;100.00
65897;BME280;52677;50.898;10.854;2022-10-30T01:35:23;98852.63;;;10.18;100.00
65897;BME280;52677;50.898;10.854;2022-10-30T01:39:47;98853.03;;;10.20;100.00
65897;BME280;52677;50.898;10.854;2022-10-30T01:41:47;98851.06;;;10.21;100.00
65897;BME280;52677;50.898;10.854;2022-10-30T01:43:51;98855.00;;;10.20;100.00
65897;BME280;52677;50.898;10.854;2022-10-30T01:53:12;98847.81;;;10.15;100.00
65897;BME280;52677;50.898;10.854;2022-10-30T01:55:24;98844.25;;;10.14;100.00
65897;BME280;52677;50.898;10.854;2022-10-30T01:57:40;98843.38;;;10.10;100.00
65897;BME280;52677;50.898;10.854;2022-10-30T01:59:46;98842.66;;;10.13;100.00
65897;BME280;52677;50.898;10.854;2022-10-30T02:01:48;98844.56;;;10.09;100.00
65897;BME280;52677;50.898;10.854;2022-10-30T02:03:49;98845.28;;;10.06;100.00
65897;BME280;52677;50.898;10.854;2022-10-30T02:05:51;98846.50;;;10.09;100.00
65897;BME280;52677;50.898;10.854;2022-10-30T02:07:52;98843.66;;;10.05;100.00
65897;BME280;52677;50.898;10.854;2022-10-30T02:09:53;98841.28;;;10.04;100.00
65897;BME280;52677;50.898;10.854;2022-10-30T02:11:54;98829.00;;;10.01;100.00
65897;BME280;52677;50.898;10.854;2022-10-30T02:13:56;98835.25;;;9.98;100.00
65897;BME280;52677;50.898;10.854;2022-10-30T02:15:57;98831.69;;;9.98;100.00
65897;BME280;52677;50.898;10.854;2022-10-30T02:17:58;98826.09;;;9.94;100.00
65897;BME280;52677;50.898;10.854;2022-10-30T02:19:58;98823.31;;;9.94;100.00
65897;BME280;52677;50.898;10.854;2022-10-30T02:21:59;98821.78;;;9.97;100.00
65897;BME280;52677;50.898;10.854;2022-10-30T02:23:59;98828.91;;;9.98;100.00
65897;BME280;52677;50.898;10.854;2022-10-30T02:25:59;98823.75;;;9.96;100.00
65897;BME280;52677;50.898;10.854;2022-10-30T02:28:00;98831.63;;;9.94;100.00
65897;BME280;52677;50.898;10.854;2022-10-30T02:30:00;98827.31;;;9.97;100.00
65897;BME280;52677;50.898;10.854;2022-10-30T02:32:01;98822.16;;;9.95;100.00
65897;BME280;52677;50.898;10.854;2022-10-30T02:34:01;98831.31;;;9.99;100.00
65897;BME280;52677;50.898;10.854;2022-10-30T02:36:02;98828.53;;;9.99;100.00
65897;BME280;52677;50.898;10.854;2022-10-30T02:38:02;98817.47;;;9.99;100.00
65897;BME280;52677;50.898;10.854;2022-10-30T02:40:03;98828.13;;;9.97;100.00
65897;BME280;52677;50.898;10.854;2022-10-30T02:42:04;98822.06;;;9.92;100.00
65897;BME280;52677;50.898;10.854;2022-10-30T02:44:04;98831.16;;;9.92;100.00
65897;BME280;52677;50.898;10.854;2022-10-30T02:46:05;98833.50;;;9.90;100.00
65897;BME280;52677;50.898;10.854;2022-10-30T02:48:06;98835.84;;;9.88;100.00
65897;BME280;52677;50.898;10.854;2022-10-30T02:50:07;98818.38;;;9.84;100.00
65897;BME280;52677;50.898;10.854;2022-10-30T02:52:07;98823.97;;;9.88;100.00
65897;BME280;52677;50.898;10.854;2022-10-30T02:54:08;98826.81;;;9.91;100.00
65897;BME280;52677;50.898;10.854;2022-10-30T02:56:12;98828.75;;;9.91;100.00
65897;BME280;52677;50.898;10.854;2022-10-30T02:58:13;98826.44;;;9.93;100.00
65897;BME280;52677;50.898;10.854;2022-10-30T03:00:14;98825.22;;;9.90;100.00
65897;BME280;52677;50.898;10.854;2022-10-30T03:02:14;98822.44;;;9.90;100.00
65897;BME280;52677;50.898;10.854;2022-10-30T03:04:14;98817.72;;;9.91;100.00
65897;BME280;52677;50.898;10.854;2022-10-30T03:06:16;98820.47;;;9.91;100.00
65897;BME280;52677;50.898;10.854;2022-10-30T03:08:16;98820.47;;;9.91;100.00
65897;BME280;52677;50.898;10.854;2022-10-30T03:10:17;98828.84;;;9.94;100.00
65897;BME280;52677;50.898;10.854;2022-10-30T03:12:17;98826.53;;;9.96;100.00
65897;BME280;52677;50.898;10.854;2022-10-30T03:14:17;98837.63;;;10.00;100.00
65897;BME280;52677;50.898;10.854;2022-10-30T03:16:20;98836.84;;;9.99;100.00
65897;BME280;52677;50.898;10.854;2022-10-30T03:18:21;98842.69;;;9.94;100.00
65897;BME280;52677;50.898;10.854;2022-10-30T03:20:21;98831.16;;;9.92;100.00
65897;BME280;52677;50.898;10.854;2022-10-30T03:22:21;98823.59;;;9.89;100.00
65897;BME280;52677;50.898;10.854;2022-10-30T03:24:22;98809.41;;;9.91;100.00
65897;BME280;52677;50.898;10.854;2022-10-30T03:26:22;98819.44;;;9.99;100.00
65897;BME280;52677;50.898;10.854;2022-10-30T03:28:24;98805.56;;;9.95;100.00
65897;BME280;52677;50.898;10.854;2022-10-30T03:30:25;98805.63;;;9.99;100.00
65897;BME280;52677;50.898;10.854;2022-10-30T03:32:25;98814.25;;;9.94;100.00
65897;BME280;52677;50.898;10.854;2022-10-30T03:34:26;98829.19;;;9.93;100.00
65897;BME280;52677;50.898;10.854;2022-10-30T03:36:26;98818.09;;;9.89;100.00
65897;BME280;52677;50.898;10.854;2022-10-30T03:38:27;98822.44;;;9.90;100.00
65897;BME280;52677;50.898;10.854;2022-10-30T03:40:27;98814.91;;;9.87;100.00
65897;BME280;52677;50.898;10.854;2022-10-30T03:42:27;98804.69;;;9.91;100.00
65897;BME280;52677;50.898;10.854;2022-10-30T03:44:28;98796.03;;;9.93;100.00
65897;BME280;52677;50.898;10.854;2022-10-30T03:46:28;98825.34;;;9.97;100.00
65897;BME280;52677;50.898;10.854;2022-10-30T03:48:30;98821.00;;;9.96;100.00
65897;BME280;52677;50.898;10.854;2022-10-30T03:50:31;98812.75;;;10.00;100.00
65897;BME280;52677;50.898;10.854;2022-10-30T03:52:31;98815.97;;;10.02;100.00
65897;BME280;52677;50.898;10.854;2022-10-30T03:54:32;98810.88;;;10.04;100.00
65897;BME280;52677;50.898;10.854;2022-10-30T03:56:32;98802.16;;;10.02;100.00
65897;BME280;52677;50.898;10.854;2022-10-30T03:58:32;98808.53;;;10.06;100.00
65897;BME280;52677;50.898;10.854;2022-10-30T04:00:33;98806.44;;;9.99;100.00
65897;BME280;52677;50.898;10.854;2022-10-30T04:02:34;98807.97;;;9.97;100.00
65897;BME280;52677;50.898;10.854;2022-10-30T04:04:34;98807.91;;;9.93;100.00
65897;BME280;52677;50.898;10.854;2022-10-30T04:06:34;98811.81;;;9.92;100.00
65897;BME280;52677;50.898;10.854;2022-10-30T04:08:34;98815.03;;;9.94;100.00
65897;BME280;52677;50.898;10.854;2022-10-30T04:10:35;98817.44;;;9.96;100.00
65897;BME280;52677;50.898;10.854;2022-10-30T04:12:35;98822.53;;;9.94;100.00
65897;BME280;52677;50.898;10.854;2022-10-30T04:14:35;98817.81;;;9.94;100.00
65897;BME280;52677;50.898;10.854;2022-10-30T04:16:36;98817.72;;;9.91;100.00
65897;BME280;52677;50.898;10.854;2022-10-30T04:18:36;98819.25;;;9.88;100.00
65897;BME280;52677;50.898;10.854;2022-10-30T04:20:36;98817.28;;;9.89;100.00
65897;BME280;52677;50.898;10.854;2022-10-30T04:22:37;98816.84;;;9.87;100.00
65897;BME280;52677;50.898;10.854;2022-10-30T04:24:37;98821.59;;;9.86;100.00
65897;BME280;52677;50.898;10.854;2022-10-30T04:26:38;98818.44;;;9.88;100.00
65897;BME280;52677;50.898;10.854;2022-10-30T04:28:38;98827.91;;;9.87;100.00
65897;BME280;52677;50.898;10.854;2022-10-30T04:30:39;98823.03;;;9.80;100.00
65897;BME280;52677;50.898;10.854;2022-10-30T04:34:46;98824.69;;;9.84;100.00
65897;BME280;52677;50.898;10.854;2022-10-30T04:36:46;98827.41;;;9.81;100.00
65897;BME280;52677;50.898;10.854;2022-10-30T04:38:47;98822.97;;;9.76;100.00
65897;BME280;52677;50.898;10.854;2022-10-30T04:40:47;98831.28;;;9.76;100.00
65897;BME280;52677;50.898;10.854;2022-10-30T04:42:47;98824.47;;;9.74;100.00
65897;BME280;52677;50.898;10.854;2022-10-30T04:44:48;98823.31;;;9.75;100.00
65897;BME280;52677;50.898;10.854;2022-10-30T04:46:48;98816.28;;;9.77;100.00
65897;BME280;52677;50.898;10.854;2022-10-30T04:48:48;98807.69;;;9.82;100.00
65897;BME280;52677;50.898;10.854;2022-10-30T04:50:49;98812.84;;;9.84;100.00
65897;BME280;52677;50.898;10.854;2022-10-30T04:52:57;98814.91;;;9.87;100.00
65897;BME280;52677;50.898;10.854;2022-10-30T04:54:57;98815.69;;;9.88;100.00
65897;BME280;52677;50.898;10.854;2022-10-30T04:56:58;98814.09;;;9.87;100.00
65897;BME280;52677;50.898;10.854;2022-10-30T04:58:58;98811.75;;;9.89;100.00
65897;BME280;52677;50.898;10.854;2022-10-30T05:01:03;98803.84;;;9.87;100.00
65897;BME280;52677;50.898;10.854;2022-10-30T05:03:03;98802.31;;;9.90;100.00
65897;BME280;52677;50.898;10.854;2022-10-30T05:05:04;98799.81;;;9.84;100.00
65897;BME280;52677;50.898;10.854;2022-10-30T05:07:04;98806.50;;;9.83;100.00
65897;BME280;52677;50.898;10.854;2022-10-30T05:09:06;98812.34;;;9.78;100.00
65897;BME280;52677;50.898;10.854;2022-10-30T05:11:06;98813.06;;;9.75;100.00
65897;BME280;52677;50.898;10.854;2022-10-30T05:13:09;98812.50;;;9.66;100.00
65897;BME280;52677;50.898;10.854;2022-10-30T05:15:11;98807.19;;;9.57;100.00
65897;BME280;52677;50.898;10.854;2022-10-30T05:17:12;98808.72;;;9.55;100.00
65897;BME280;52677;50.898;10.854;2022-10-30T05:19:12;98810.59;;;9.51;100.00
65897;BME280;52677;50.898;10.854;2022-10-30T05:21:12;98803.69;;;9.41;100.00
65897;BME280;52677;50.898;10.854;2022-10-30T05:23:13;98799.16;;;9.33;100.00
65897;BME280;52677;50.898;10.854;2022-10-30T05:25:13;98803.84;;;9.29;100.00
65897;BME280;52677;50.898;10.854;2022-10-30T05:27:14;98797.41;;;9.25;100.00
65897;BME280;52677;50.898;10.854;2022-10-30T05:29:15;98793.78;;;9.21;100.00
65897;BME280;52677;50.898;10.854;2022-10-30T05:31:15;98800.38;;;9.16;100.00
65897;BME280;52677;50.898;10.854;2022-10-30T05:33:15;98797.56;;;9.13;100.00
65897;BME280;52677;50.898;10.854;2022-10-30T05:35:17;98787.69;;;9.12;100.00
65897;BME280;52677;50.898;10.854;2022-10-30T05:37:17;98799.94;;;9.14;100.00
65897;BME280;52677;50.898;10.854;2022-10-30T05:39:17;98794.44;;;9.14;100.00
65897;BME280;52677;50.898;10.854;2022-10-30T05:41:17;98788.91;;;9.14;100.00
65897;BME280;52677;50.898;10.854;2022-10-30T05:43:18;98799.53;;;9.12;100.00
65897;BME280;52677;50.898;10.854;2022-10-30T05:45:18;98795.50;;;9.10;100.00
65897;BME280;52677;50.898;10.854;2022-10-30T05:47:19;98809.66;;;9.08;100.00
65897;BME280;52677;50.898;10.854;2022-10-30T05:49:19;98798.13;;;9.03;100.00
65897;BME280;52677;50.898;10.854;2022-10-30T05:51:19;98806.47;;;9.06;100.00
65897;BME280;52677;50.898;10.854;2022-10-30T05:53:20;98800.94;;;9.06;100.00
65897;BME280;52677;50.898;10.854;2022-10-30T05:55:20;98807.22;;;9.03;100.00
65897;BME280;52677;50.898;10.854;2022-10-30T05:57:20;98802.38;;;9.00;100.00
65897;BME280;52677;50.898;10.854;2022-10-30T05:59:21;98805.44;;;8.95;100.00
65897;BME280;52677;50.898;10.854;2022-10-30T06:01:21;98804.28;;;8.96;100.00
65897;BME280;52677;50.898;10.854;2022-10-30T06:03:21;98802.69;;;8.95;100.00
65897;BME280;52677;50.898;10.854;2022-10-30T06:05:22;98802.69;;;8.95;100.00
65897;BME280;52677;50.898;10.854;2022-10-30T06:07:22;98812.81;;;8.91;100.00
65897;BME280;52677;50.898;10.854;2022-10-30T06:09:22;98808.84;;;8.88;100.00
65897;BME280;52677;50.898;10.854;2022-10-30T06:11:23;98810.34;;;8.86;100.00
65897;BME280;52677;50.898;10.854;2022-10-30T06:13:23;98798.84;;;8.84;100.00
65897;BME280;52677;50.898;10.854;2022-10-30T06:15:24;98799.22;;;8.82;100.00
65897;BME280;52677;50.898;10.854;2022-10-30T06:17:24;98805.53;;;8.83;100.00
65897;BME280;52677;50.898;10.854;2022-10-30T06:19:24;98804.00;;;8.85;100.00
65897;BME280;52677;50.898;10.854;2022-10-30T06:21:24;98807.59;;;8.86;100.00
65897;BME280;52677;50.898;10.854;2022-10-30T06:23:25;98798.06;;;8.83;100.00
65897;BME280;52677;50.898;10.854;2022-10-30T06:25:25;98807.50;;;8.82;100.00
65897;BME280;52677;50.898;10.854;2022-10-30T06:27:26;98812.16;;;8.78;100.00
65897;BME280;52677;50.898;10.854;2022-10-30T06:29:27;98817.91;;;8.73;100.00
65897;BME280;52677;50.898;10.854;2022-10-30T06:31:27;98813.94;;;8.70;100.00
65897;BME280;52677;50.898;10.854;2022-10-30T06:33:27;98815.41;;;8.68;100.00
65897;BME280;52677;50.898;10.854;2022-10-30T06:35:28;98826.75;;;8.63;100.00
65897;BME280;52677;50.898;10.854;2022-10-30T06:37:28;98834.66;;;8.64;100.00
65897;BME280;52677;50.898;10.854;2022-10-30T06:39:29;98823.25;;;8.66;100.00
65897;BME280;52677;50.898;10.854;2022-10-30T06:41:29;98826.03;;;8.66;100.00
65897;BME280;52677;50.898;10.854;2022-10-30T06:43:29;98827.19;;;8.65;100.00
65897;BME280;52677;50.898;10.854;2022-10-30T06:45:30;98818.47;;;8.63;100.00
65897;BME280;52677;50.898;10.854;2022-10-30T06:47:33;98814.38;;;8.57;100.00
65897;BME280;52677;50.898;10.854;2022-10-30T06:49:34;98827.44;;;8.60;100.00
65897;BME280;52677;50.898;10.854;2022-10-30T06:51:34;98822.28;;;8.58;100.00
65897;BME280;52677;50.898;10.854;2022-10-30T06:53:34;98823.44;;;8.57;100.00
65897;BME280;52677;50.898;10.854;2022-10-30T06:55:35;98834.13;;;8.59;100.00
65897;BME280;52677;50.898;10.854;2022-10-30T06:57:35;98828.88;;;8.54;100.00
65897;BME280;52677;50.898;10.854;2022-10-30T06:59:35;98832.09;;;8.56;100.00
65897;BME280;52677;50.898;10.854;2022-10-30T07:01:35;98840.34;;;8.56;100.00
65897;BME280;52677;50.898;10.854;2022-10-30T07:03:36;98841.16;;;8.56;100.00
65897;BME280;52677;50.898;10.854;2022-10-30T07:05:36;98852.97;;;8.57;100.00
65897;BME280;52677;50.898;10.854;2022-10-30T07:07:36;98850.66;;;8.59;100.00
65897;BME280;52677;50.898;10.854;2022-10-30T07:09:37;98852.19;;;8.56;100.00
65897;BME280;52677;50.898;10.854;2022-10-30T07:11:37;98849.06;;;8.58;100.00
65897;BME280;52677;50.898;10.854;2022-10-30T07:13:39;98856.66;;;8.61;100.00
65897;BME280;52677;50.898;10.854;2022-10-30T07:15:39;98861.00;;;8.62;100.00
65897;BME280;52677;50.898;10.854;2022-10-30T07:17:39;98855.50;;;8.62;100.00
65897;BME280;52677;50.898;10.854;2022-10-30T07:19:40;98863.03;;;8.65;100.00
65897;BME280;52677;50.898;10.854;2022-10-30T07:21:40;98861.53;;;8.67;100.00
65897;BME280;52677;50.898;10.854;2022-10-30T07:23:40;98859.66;;;8.71;100.00
65897;BME280;52677;50.898;10.854;2022-10-30T07:25:40;98854.94;;;8.72;100.00
65897;BME280;52677;50.898;10.854;2022-10-30T07:27:42;98859.03;;;8.78;100.00
65897;BME280;52677;50.898;10.854;2022-10-30T07:29:43;98856.34;;;8.82;100.00
65897;BME280;52677;50.898;10.854;2022-10-30T07:31:47;98856.78;;;8.84;100.00
65897;BME280;52677;50.898;10.854;2022-10-30T07:33:48;98860.91;;;8.90;100.00
65897;BME280;52677;50.898;10.854;2022-10-30T07:35:49;98854.22;;;8.91;100.00
65897;BME280;52677;50.898;10.854;2022-10-30T07:37:49;98871.31;;;8.96;100.00
65897;BME280;52677;50.898;10.854;2022-10-30T07:39:49;98865.06;;;8.99;100.00
65897;BME280;52677;50.898;10.854;2022-10-30T07:41:49;98866.75;;;9.04;100.00
65897;BME280;52677;50.898;10.854;2022-10-30T07:43:50;98858.56;;;9.08;100.00
65897;BME280;52677;50.898;10.854;2022-10-30T07:45:50;98869.69;;;9.11;100.00
65897;BME280;52677;50.898;10.854;2022-10-30T07:47:50;98866.56;;;9.13;100.00
65897;BME280;52677;50.898;10.854;2022-10-30T07:49:50;98867.44;;;9.17;100.00
65897;BME280;52677;50.898;10.854;2022-10-30T07:51:51;98867.16;;;9.22;100.00
65897;BME280;52677;50.898;10.854;2022-10-30T07:53:51;98871.25;;;9.28;100.00
65897;BME280;52677;50.898;10.854;2022-10-30T07:55:51;98867.03;;;9.34;100.00
65897;BME280;52677;50.898;10.854;2022-10-30T07:57:51;98864.75;;;9.36;100.00
65897;BME280;52677;50.898;10.854;2022-10-30T07:59:52;98876.09;;;9.50;100.00
65897;BME280;52677;50.898;10.854;2022-10-30T08:01:52;98868.25;;;9.52;100.00
65897;BME280;52677;50.898;10.854;2022-10-30T08:03:52;98867.59;;;9.59;100.00
65897;BME280;52677;50.898;10.854;2022-10-30T08:05:53;98878.31;;;9.61;100.00
65897;BME280;52677;50.898;10.854;2022-10-30T08:07:53;98870.06;;;9.64;100.00
65897;BME280;52677;50.898;10.854;2022-10-30T08:09:53;98865.06;;;9.70;100.00
65897;BME280;52677;50.898;10.854;2022-10-30T08:11:54;98872.25;;;9.74;100.00
65897;BME280;52677;50.898;10.854;2022-10-30T08:13:54;98875.81;;;9.75;100.00
65897;BME280;52677;50.898;10.854;2022-10-30T08:15:54;98878.72;;;9.82;100.00
65897;BME280;52677;50.898;10.854;2022-10-30T08:17:54;98883.69;;;9.92;100.00
65897;BME280;52677;50.898;10.854;2022-10-30T08:19:55;98881.16;;;10.03;100.00
65897;BME280;52677;50.898;10.854;2022-10-30T08:21:56;98883.75;;;10.15;100.00
65897;BME280;52677;50.898;10.854;2022-10-30T08:23:56;98882.84;;;10.27;100.00
65897;BME280;52677;50.898;10.854;2022-10-30T08:25:57;98892.56;;;10.40;100.00
65897;BME280;52677;50.898;10.854;2022-10-30T08:28:00;98875.00;;;10.52;100.00
65897;BME280;52677;50.898;10.854;2022-10-30T08:30:00;98882.31;;;10.63;100.00
65897;BME280;52677;50.898;10.854;2022-10-30T08:32:01;98886.56;;;10.80;100.00
65897;BME280;52677;50.898;10.854;2022-10-30T08:34:01;98878.78;;;10.89;100.00
65897;BME280;52677;50.898;10.854;2022-10-30T08:36:02;98880.00;;;10.92;100.00
65897;BME280;52677;50.898;10.854;2022-10-30T08:38:02;98890.53;;;11.06;100.00
65897;BME280;52677;50.898;10.854;2022-10-30T08:40:03;98889.78;;;11.09;100.00
65897;BME280;52677;50.898;10.854;2022-10-30T08:42:03;98893.13;;;11.18;100.00
65897;BME280;52677;50.898;10.854;2022-10-30T08:44:04;98894.81;;;11.26;100.00
65897;BME280;52677;50.898;10.854;2022-10-30T08:46:04;98895.66;;;11.30;100.00
65897;BME280;52677;50.898;10.854;2022-10-30T08:48:05;98894.97;;;11.37;100.00
65897;BME280;52677;50.898;10.854;2022-10-30T08:50:06;98893.84;;;11.41;100.00
65897;BME280;52677;50.898;10.854;2022-10-30T08:52:07;98889.53;;;11.44;100.00
65897;BME280;52677;50.898;10.854;2022-10-30T08:54:08;98893.16;;;11.48;100.00
65897;BME280;52677;50.898;10.854;2022-10-30T08:56:08;98888.84;;;11.50;100.00
65897;BME280;52677;50.898;10.854;2022-10-30T08:58:09;98895.25;;;11.58;100.00
65897;BME280;52677;50.898;10.854;2022-10-30T09:00:09;98887.06;;;11.65;100.00
65897;BME280;52677;50.898;10.854;2022-10-30T09:02:09;98896.69;;;11.75;100.00
65897;BME280;52677;50.898;10.854;2022-10-30T09:04:10;98888.56;;;11.86;100.00
65897;BME280;52677;50.898;10.854;2022-10-30T09:06:10;98884.28;;;11.92;100.00
65897;BME280;52677;50.898;10.854;2022-10-30T09:08:11;98883.13;;;11.96;100.00
65897;BME280;52677;50.898;10.854;2022-10-30T09:10:12;98894.28;;;12.00;100.00
65897;BME280;52677;50.898;10.854;2022-10-30T09:12:12;98899.09;;;12.06;100.00
65897;BME280;52677;50.898;10.854;2022-10-30T09:14:13;98890.03;;;12.09;100.00
65897;BME280;52677;50.898;10.854;2022-10-30T09:16:13;98894.06;;;12.16;100.00
65897;BME280;52677;50.898;10.854;2022-10-30T09:18:13;98896.59;;;12.28;100.00
65897;BME280;52677;50.898;10.854;2022-10-30T09:20:13;98890.75;;;12.36;100.00
65897;BME280;52677;50.898;10.854;2022-10-30T09:22:14;98892.81;;;12.47;100.00
65897;BME280;52677;50.898;10.854;2022-10-30T09:24:14;98895.34;;;12.59;100.00
65897;BME280;52677;50.898;10.854;2022-10-30T09:26:14;98901.38;;;12.68;100.00
65897;BME280;52677;50.898;10.854;2022-10-30T09:28:14;98901.06;;;12.77;100.00
65897;BME280;52677;50.898;10.854;2022-10-30T09:30:15;98889.22;;;12.83;100.00
65897;BME280;52677;50.898;10.854;2022-10-30T09:32:15;98889.69;;;12.92;100.00
65897;BME280;52677;50.898;10.854;2022-10-30T09:34:15;98894.94;;;13.01;100.00
65897;BME280;52677;50.898;10.854;2022-10-30T09:36:16;98894.59;;;13.10;100.00
65897;BME280;52677;50.898;10.854;2022-10-30T09:38:17;98892.28;;;13.19;100.00
65897;BME280;52677;50.898;10.854;2022-10-30T09:40:21;98894.38;;;13.29;100.00
65897;BME280;52677;50.898;10.854;2022-10-30T09:42:41;98897.66;;;13.42;100.00
65897;BME280;52677;50.898;10.854;2022-10-30T09:49:47;98893.50;;;13.76;100.00
65897;BME280;52677;50.898;10.854;2022-10-30T09:52:11;98904.66;;;13.87;100.00
65897;BME280;52677;50.898;10.854;2022-10-30T09:57:28;98888.06;;;14.05;100.00
65897;BME280;52677;50.898;10.854;2022-10-30T09:59:25;98883.72;;;14.15;100.00
65897;BME280;52677;50.898;10.854;2022-10-30T10:01:48;98887.34;;;14.26;100.00
65897;BME280;52677;50.898;10.854;2022-10-30T10:06:02;98887.44;;;14.54;100.00
65897;BME280;52677;50.898;10.854;2022-10-30T10:08:07;98885.06;;;14.60;100.00
65897;BME280;52677;50.898;10.854;2022-10-30T10:10:18;98887.88;;;14.67;100.00
65897;BME280;52677;50.898;10.854;2022-10-30T10:12:25;98885.88;;;14.71;100.00
65897;BME280;52677;50.898;10.854;2022-10-30T10:14:31;98882.28;;;14.71;100.00
65897;BME280;52677;50.898;10.854;2022-10-30T10:16:33;98879.50;;;14.71;100.00
65897;BME280;52677;50.898;10.854;2022-10-30T10:18:42;98873.53;;;14.72;100.00
65897;BME280;52677;50.898;10.854;2022-10-30T10:20:46;98870.38;;;14.77;100.00
65897;BME280;52677;50.898;10.854;2022-10-30T10:22:49;98876.75;;;14.85;100.00
65897;BME280;52677;50.898;10.854;2022-10-30T10:24:50;98866.78;;;14.87;100.00
65897;BME280;52677;50.898;10.854;2022-10-30T10:29:33;98857.25;;;14.99;100.00
65897;BME280;52677;50.898;10.854;2022-10-30T10:31:49;98866.00;;;15.08;100.00
65897;BME280;52677;50.898;10.854;2022-10-30T10:36:47;98851.25;;;15.33;100.00
65897;BME280;52677;50.898;10.854;2022-10-30T10:44:15;98855.22;;;15.64;95.17
65897;BME280;52677;50.898;10.854;2022-10-30T10:49:38;98855.13;;;15.78;95.79
65897;BME280;52677;50.898;10.854;2022-10-30T10:51:44;98849.16;;;15.83;94.45
65897;BME280;52677;50.898;10.854;2022-10-30T10:54:11;98854.31;;;15.88;94.19
65897;BME280;52677;50.898;10.854;2022-10-30T10:56:16;98848.66;;;16.02;93.91
65897;BME280;52677;50.898;10.854;2022-10-30T10:58:50;98853.03;;;16.11;92.61
65897;BME280;52677;50.898;10.854;2022-10-30T11:00:55;98844.22;;;16.12;92.49
65897;BME280;52677;50.898;10.854;2022-10-30T11:03:10;98848.22;;;16.15;92.56
65897;BME280;52677;50.898;10.854;2022-10-30T11:09:21;98844.94;;;16.34;89.24
65897;BME280;52677;50.898;10.854;2022-10-30T11:11:21;98833.34;;;16.36;88.76
65897;BME280;52677;50.898;10.854;2022-10-30T11:13:24;98834.53;;;16.35;89.01
65897;BME280;52677;50.898;10.854;2022-10-30T11:15:32;98832.94;;;16.37;88.97
65897;BME280;52677;50.898;10.854;2022-10-30T11:17:42;98832.13;;;16.37;90.44
65897;BME280;52677;50.898;10.854;2022-10-30T11:19:47;98844.50;;;16.39;90.73
65897;BME280;52677;50.898;10.854;2022-10-30T11:21:52;98828.56;;;16.36;89.96
65897;BME280;52677;50.898;10.854;2022-10-30T11:23:53;98827.72;;;16.43;88.10
65897;BME280;52677;50.898;10.854;2022-10-30T11:25:53;98820.84;;;16.54;86.01
65897;BME280;52677;50.898;10.854;2022-10-30T11:27:59;98827.97;;;16.63;86.68